sensor_id;sensor_type;location;lat;lon;timestamp;pressure;altitude;pressure_sealevel;temperature;humidity
11830;BME280;5972;42.134;24.718;2023-05-29T00:01:45;99369.84;;;18.27;100.00
11830;BME280;5972;42.134;24.718;2023-05-29T00:04:13;99358.47;;;18.29;100.00
11830;BME280;5972;42.134;24.718;2023-05-29T00:06:40;99363.19;;;18.32;100.00
11830;BME280;5972;42.134;24.718;2023-05-29T00:09:07;99332.31;;;18.21;100.00
11830;BME280;5972;42.134;24.718;2023-05-29T00:11:34;99366.63;;;18.40;100.00
11830;BME280;5972;42.134;24.718;2023-05-29T00:14:01;99367.47;;;18.33;100.00
11830;BME280;5972;42.134;24.718;2023-05-29T00:16:28;99362.75;;;18.34;100.00
11830;BME280;5972;42.134;24.718;2023-05-29T00:18:55;99367.03;;;18.42;100.00
11830;BME280;5972;42.134;24.718;2023-05-29T00:21:24;99370.59;;;18.32;100.00
11830;BME280;5972;42.134;24.718;2023-05-29T00:23:51;99376.06;;;18.39;100.00
11830;BME280;5972;42.134;24.718;2023-05-29T00:26:18;99370.56;;;18.42;100.00
11830;BME280;5972;42.134;24.718;2023-05-29T00:28:45;99369.41;;;18.36;100.00
11830;BME280;5972;42.134;24.718;2023-05-29T00:31:11;99371.72;;;18.41;100.00
11830;BME280;5972;42.134;24.718;2023-05-29T00:33:38;99355.72;;;18.36;100.00
11830;BME280;5972;42.134;24.718;2023-05-29T00:36:05;99358.00;;;18.45;100.00
11830;BME280;5972;42.134;24.718;2023-05-29T00:38:34;99360.78;;;18.38;100.00
11830;BME280;5972;42.134;24.718;2023-05-29T00:41:01;99354.16;;;18.39;100.00
11830;BME280;5972;42.134;24.718;2023-05-29T00:43:28;99350.59;;;18.42;100.00
11830;BME280;5972;42.134;24.718;2023-05-29T00:45:55;99360.78;;;18.38;100.00
11830;BME280;5972;42.134;24.718;2023-05-29T00:48:22;99359.22;;;18.37;100.00
11830;BME280;5972;42.134;24.718;2023-05-29T00:50:49;99348.69;;;18.32;100.00
11830;BME280;5972;42.134;24.718;2023-05-29T00:53:16;99344.38;;;18.38;100.00
11830;BME280;5972;42.134;24.718;2023-05-29T00:55:44;99347.19;;;18.20;100.00
11830;BME280;5972;42.134;24.718;2023-05-29T00:58:11;99344.84;;;18.22;100.00
11830;BME280;5972;42.134;24.718;2023-05-29T01:00:38;99347.88;;;18.35;100.00
11830;BME280;5972;42.134;24.718;2023-05-29T01:03:06;99355.31;;;18.38;100.00
11830;BME280;5972;42.134;24.718;2023-05-29T01:05:34;99350.19;;;18.40;100.00
11830;BME280;5972;42.134;24.718;2023-05-29T01:08:02;99349.06;;;18.37;100.00
11830;BME280;5972;42.134;24.718;2023-05-29T01:10:29;99350.97;;;18.40;100.00
11830;BME280;5972;42.134;24.718;2023-05-29T01:13:08;99352.53;;;18.41;100.00
11830;BME280;5972;42.134;24.718;2023-05-29T01:15:42;99348.22;;;18.47;100.00
11830;BME280;5972;42.134;24.718;2023-05-29T01:18:20;99346.28;;;18.41;100.00
11830;BME280;5972;42.134;24.718;2023-05-29T01:20:53;99326.03;;;18.24;100.00
11830;BME280;5972;42.134;24.718;2023-05-29T01:23:44;99341.19;;;18.39;100.00
11830;BME280;5972;42.134;24.718;2023-05-29T01:26:46;99355.31;;;18.38;100.00
11830;BME280;5972;42.134;24.718;2023-05-29T01:29:17;99345.16;;;18.35;100.00
11830;BME280;5972;42.134;24.718;2023-05-29T01:31:45;99310.41;;;18.21;100.00
11830;BME280;5972;42.134;24.718;2023-05-29T01:34:12;99315.94;;;18.07;100.00
11830;BME280;5972;42.134;24.718;2023-05-29T01:36:39;99329.97;;;18.19;100.00
11830;BME280;5972;42.134;24.718;2023-05-29T01:39:07;99310.44;;;18.14;100.00
11830;BME280;5972;42.134;24.718;2023-05-29T01:41:36;99339.66;;;18.35;100.00
11830;BME280;5972;42.134;24.718;2023-05-29T01:44:06;99336.94;;;18.35;100.00
11830;BME280;5972;42.134;24.718;2023-05-29T01:46:35;99333.84;;;18.33;100.00
11830;BME280;5972;42.134;24.718;2023-05-29T01:49:27;99333.91;;;18.15;100.00
11830;BME280;5972;42.134;24.718;2023-05-29T01:52:00;99333.84;;;18.29;100.00
11830;BME280;5972;42.134;24.718;2023-05-29T01:54:47;99341.25;;;18.28;100.00
11830;BME280;5972;42.134;24.718;2023-05-29T01:57:14;99324.19;;;18.03;100.00
11830;BME280;5972;42.134;24.718;2023-05-29T01:59:42;99341.31;;;18.18;100.00
11830;BME280;5972;42.134;24.718;2023-05-29T02:02:09;99337.78;;;18.17;100.00
11830;BME280;5972;42.134;24.718;2023-05-29T02:04:37;99339.75;;;18.17;100.00
11830;BME280;5972;42.134;24.718;2023-05-29T02:07:04;99340.16;;;18.12;100.00
11830;BME280;5972;42.134;24.718;2023-05-29T02:09:31;99345.66;;;18.15;100.00
11830;BME280;5972;42.134;24.718;2023-05-29T02:15:36;99352.31;;;18.11;100.00
11830;BME280;5972;42.134;24.718;2023-05-29T02:18:03;99354.22;;;18.21;100.00
11830;BME280;5972;42.134;24.718;2023-05-29T02:20:30;99351.13;;;18.15;100.00
11830;BME280;5972;42.134;24.718;2023-05-29T02:22:57;99353.81;;;18.22;100.00
11830;BME280;5972;42.134;24.718;2023-05-29T02:25:24;99337.06;;;18.10;100.00
11830;BME280;5972;42.134;24.718;2023-05-29T02:27:50;99355.41;;;18.20;100.00
11830;BME280;5972;42.134;24.718;2023-05-29T02:30:17;99352.66;;;18.20;100.00
11830;BME280;5972;42.134;24.718;2023-05-29T02:32:45;99355.00;;;18.21;100.00
11830;BME280;5972;42.134;24.718;2023-05-29T02:35:12;99354.97;;;18.28;100.00
11830;BME280;5972;42.134;24.718;2023-05-29T02:37:40;99354.97;;;18.28;100.00
11830;BME280;5972;42.134;24.718;2023-05-29T02:40:07;99351.03;;;18.29;100.00
11830;BME280;5972;42.134;24.718;2023-05-29T02:42:35;99356.53;;;18.29;100.00
11830;BME280;5972;42.134;24.718;2023-05-29T02:45:02;99354.22;;;18.24;100.00
11830;BME280;5972;42.134;24.718;2023-05-29T02:47:29;99358.94;;;18.20;100.00
11830;BME280;5972;42.134;24.718;2023-05-29T02:49:57;99355.78;;;18.18;100.00
11830;BME280;5972;42.134;24.718;2023-05-29T02:52:24;99358.53;;;18.22;100.00
11830;BME280;5972;42.134;24.718;2023-05-29T02:54:51;99352.25;;;18.25;100.00
11830;BME280;5972;42.134;24.718;2023-05-29T02:57:21;99358.53;;;18.18;100.00
11830;BME280;5972;42.134;24.718;2023-05-29T02:59:48;99359.44;;;17.91;100.00
11830;BME280;5972;42.134;24.718;2023-05-29T03:02:15;99359.50;;;17.52;100.00
11830;BME280;5972;42.134;24.718;2023-05-29T03:04:42;99367.72;;;17.41;100.00
11830;BME280;5972;42.134;24.718;2023-05-29T03:07:10;99354.81;;;17.52;100.00
11830;BME280;5972;42.134;24.718;2023-05-29T03:09:38;99377.06;;;17.75;100.00
11830;BME280;5972;42.134;24.718;2023-05-29T03:12:05;99365.75;;;17.56;100.00
11830;BME280;5972;42.134;24.718;2023-05-29T03:14:32;99368.06;;;17.78;100.00
11830;BME280;5972;42.134;24.718;2023-05-29T03:17:01;99380.56;;;17.86;100.00
11830;BME280;5972;42.134;24.718;2023-05-29T03:19:28;99381.75;;;17.85;100.00
11830;BME280;5972;42.134;24.718;2023-05-29T03:21:55;99379.41;;;17.88;100.00
11830;BME280;5972;42.134;24.718;2023-05-29T03:24:23;99386.41;;;17.96;100.00
11830;BME280;5972;42.134;24.718;2023-05-29T03:26:53;99384.06;;;17.98;100.00
11830;BME280;5972;42.134;24.718;2023-05-29T03:29:20;99388.69;;;18.08;100.00
11830;BME280;5972;42.134;24.718;2023-05-29T03:31:46;99389.84;;;18.21;100.00
11830;BME280;5972;42.134;24.718;2023-05-29T03:34:13;99393.06;;;17.84;100.00
11830;BME280;5972;42.134;24.718;2023-05-29T03:36:40;99382.06;;;18.05;100.00
11830;BME280;5972;42.134;24.718;2023-05-29T03:39:06;99393.41;;;18.07;100.00
11830;BME280;5972;42.134;24.718;2023-05-29T03:41:34;99392.56;;;18.21;100.00
11830;BME280;5972;42.134;24.718;2023-05-29T03:44:01;99395.66;;;18.30;100.00
11830;BME280;5972;42.134;24.718;2023-05-29T03:46:28;99394.50;;;18.24;100.00
11830;BME280;5972;42.134;24.718;2023-05-29T03:48:55;99394.88;;;18.22;100.00
11830;BME280;5972;42.134;24.718;2023-05-29T03:51:21;99383.16;;;18.25;100.00
11830;BME280;5972;42.134;24.718;2023-05-29T03:53:50;99392.84;;;18.41;100.00
11830;BME280;5972;42.134;24.718;2023-05-29T03:56:17;99395.25;;;18.39;100.00
11830;BME280;5972;42.134;24.718;2023-05-29T03:58:45;99392.84;;;18.48;100.00
11830;BME280;5972;42.134;24.718;2023-05-29T04:01:12;99393.28;;;18.36;100.00
11830;BME280;5972;42.134;24.718;2023-05-29T04:03:39;99395.97;;;18.46;100.00
11830;BME280;5972;42.134;24.718;2023-05-29T04:06:06;99399.84;;;18.52;100.00
11830;BME280;5972;42.134;24.718;2023-05-29T04:08:33;99397.91;;;18.46;100.00
11830;BME280;5972;42.134;24.718;2023-05-29T04:11:01;99411.97;;;18.51;100.00
11830;BME280;5972;42.134;24.718;2023-05-29T04:13:28;99409.63;;;18.53;100.00
11830;BME280;5972;42.134;24.718;2023-05-29T04:15:57;99390.09;;;18.48;100.00
11830;BME280;5972;42.134;24.718;2023-05-29T04:18:24;99412.41;;;18.50;100.00
11830;BME280;5972;42.134;24.718;2023-05-29T04:20:51;99406.09;;;18.56;100.00
11830;BME280;5972;42.134;24.718;2023-05-29T04:23:19;99415.16;;;18.43;100.00
11830;BME280;5972;42.134;24.718;2023-05-29T04:25:46;99394.41;;;18.45;100.00
11830;BME280;5972;42.134;24.718;2023-05-29T04:28:16;99411.94;;;18.62;100.00
11830;BME280;5972;42.134;24.718;2023-05-29T04:30:43;99399.09;;;18.55;100.00
11830;BME280;5972;42.134;24.718;2023-05-29T04:33:11;99411.25;;;18.40;100.00
11830;BME280;5972;42.134;24.718;2023-05-29T04:35:41;99420.16;;;18.65;100.00
11830;BME280;5972;42.134;24.718;2023-05-29T04:38:08;99428.78;;;18.64;100.00
11830;BME280;5972;42.134;24.718;2023-05-29T04:40:35;99432.28;;;18.68;100.00
11830;BME280;5972;42.134;24.718;2023-05-29T04:43:02;99425.22;;;18.71;100.00
11830;BME280;5972;42.134;24.718;2023-05-29T04:45:30;99440.44;;;18.82;100.00
11830;BME280;5972;42.134;24.718;2023-05-29T04:47:57;99427.59;;;18.72;100.00
11830;BME280;5972;42.134;24.718;2023-05-29T04:50:25;99436.97;;;18.67;100.00
11830;BME280;5972;42.134;24.718;2023-05-29T04:52:56;99432.25;;;18.75;100.00
11830;BME280;5972;42.134;24.718;2023-05-29T04:55:23;99438.44;;;18.86;100.00
11830;BME280;5972;42.134;24.718;2023-05-29T04:57:49;99440.47;;;18.75;100.00
11830;BME280;5972;42.134;24.718;2023-05-29T05:00:17;99435.81;;;18.72;100.00
11830;BME280;5972;42.134;24.718;2023-05-29T05:02:44;99440.81;;;18.81;100.00
11830;BME280;5972;42.134;24.718;2023-05-29T05:05:12;99450.63;;;18.82;100.00
11830;BME280;5972;42.134;24.718;2023-05-29T05:07:40;99451.41;;;18.82;100.00
11830;BME280;5972;42.134;24.718;2023-05-29T05:10:07;99449.91;;;18.71;100.00
11830;BME280;5972;42.134;24.718;2023-05-29T05:12:34;99449.44;;;18.83;100.00
11830;BME280;5972;42.134;24.718;2023-05-29T05:15:01;99457.25;;;18.84;100.00
11830;BME280;5972;42.134;24.718;2023-05-29T05:17:27;99448.22;;;18.91;100.00
11830;BME280;5972;42.134;24.718;2023-05-29T05:19:54;99456.00;;;18.99;100.00
11830;BME280;5972;42.134;24.718;2023-05-29T05:22:21;99454.16;;;18.82;100.00
11830;BME280;5972;42.134;24.718;2023-05-29T05:24:49;99450.94;;;18.91;100.00
11830;BME280;5972;42.134;24.718;2023-05-29T05:27:17;99459.84;;;19.09;100.00
11830;BME280;5972;42.134;24.718;2023-05-29T05:29:44;99466.06;;;19.17;100.00
11830;BME280;5972;42.134;24.718;2023-05-29T05:32:10;99461.78;;;19.12;100.00
11830;BME280;5972;42.134;24.718;2023-05-29T05:34:37;99468.78;;;19.20;100.00
11830;BME280;5972;42.134;24.718;2023-05-29T05:37:04;99477.25;;;19.40;100.00
11830;BME280;5972;42.134;24.718;2023-05-29T05:39:31;99446.84;;;19.20;100.00
11830;BME280;5972;42.134;24.718;2023-05-29T05:41:59;99453.97;;;19.07;100.00
11830;BME280;5972;42.134;24.718;2023-05-29T05:44:26;99442.09;;;19.28;100.00
11830;BME280;5972;42.134;24.718;2023-05-29T05:46:53;99476.44;;;19.46;100.00
11830;BME280;5972;42.134;24.718;2023-05-29T05:49:20;99488.06;;;19.65;100.00
11830;BME280;5972;42.134;24.718;2023-05-29T05:51:47;99484.50;;;19.68;100.00
11830;BME280;5972;42.134;24.718;2023-05-29T05:54:13;99483.22;;;19.83;100.00
11830;BME280;5972;42.134;24.718;2023-05-29T05:56:41;99486.63;;;19.94;100.00
11830;BME280;5972;42.134;24.718;2023-05-29T05:59:09;99491.56;;;20.10;100.00
11830;BME280;5972;42.134;24.718;2023-05-29T06:01:38;99488.72;;;20.20;100.00
11830;BME280;5972;42.134;24.718;2023-05-29T06:04:06;99470.31;;;20.14;100.00
11830;BME280;5972;42.134;24.718;2023-05-29T06:06:34;99489.41;;;20.28;100.00
11830;BME280;5972;42.134;24.718;2023-05-29T06:09:01;99467.28;;;20.42;100.00
11830;BME280;5972;42.134;24.718;2023-05-29T06:11:29;99481.47;;;20.71;100.00
11830;BME280;5972;42.134;24.718;2023-05-29T06:13:57;99491.94;;;20.80;100.00
11830;BME280;5972;42.134;24.718;2023-05-29T06:16:25;99480.78;;;20.94;100.00
11830;BME280;5972;42.134;24.718;2023-05-29T06:18:52;99464.72;;;20.89;100.00
11830;BME280;5972;42.134;24.718;2023-05-29T06:21:18;99451.69;;;20.93;100.00
11830;BME280;5972;42.134;24.718;2023-05-29T06:23:46;99495.09;;;21.08;100.00
11830;BME280;5972;42.134;24.718;2023-05-29T06:26:13;99488.47;;;21.33;100.00
11830;BME280;5972;42.134;24.718;2023-05-29T06:28:41;99484.91;;;20.79;100.00
11830;BME280;5972;42.134;24.718;2023-05-29T06:31:07;99490.53;;;21.29;100.00
11830;BME280;5972;42.134;24.718;2023-05-29T06:33:36;99491.44;;;21.45;100.00
11830;BME280;5972;42.134;24.718;2023-05-29T06:36:04;99492.31;;;21.39;100.00
11830;BME280;5972;42.134;24.718;2023-05-29T06:38:30;99489.13;;;21.40;100.00
11830;BME280;5972;42.134;24.718;2023-05-29T06:40:57;99494.59;;;21.44;100.00
11830;BME280;5972;42.134;24.718;2023-05-29T06:43:24;99486.50;;;21.33;100.00
11830;BME280;5972;42.134;24.718;2023-05-29T06:45:51;99501.25;;;21.70;100.00
11830;BME280;5972;42.134;24.718;2023-05-29T06:48:17;99501.25;;;21.93;100.00
11830;BME280;5972;42.134;24.718;2023-05-29T06:50:46;99508.66;;;22.00;100.00
11830;BME280;5972;42.134;24.718;2023-05-29T06:53:12;99508.31;;;22.17;100.00
11830;BME280;5972;42.134;24.718;2023-05-29T06:55:39;99513.78;;;21.97;100.00
11830;BME280;5972;42.134;24.718;2023-05-29T06:58:07;99505.19;;;22.15;100.00
11830;BME280;5972;42.134;24.718;2023-05-29T07:00:34;99506.91;;;22.49;100.00
11830;BME280;5972;42.134;24.718;2023-05-29T07:03:01;99506.84;;;22.52;100.00
11830;BME280;5972;42.134;24.718;2023-05-29T07:05:28;99509.13;;;22.77;100.00
11830;BME280;5972;42.134;24.718;2023-05-29T07:07:56;99500.22;;;22.89;100.00
11830;BME280;5972;42.134;24.718;2023-05-29T07:10:22;99509.31;;;23.06;100.00
11830;BME280;5972;42.134;24.718;2023-05-29T07:12:49;99502.78;;;23.32;100.00
11830;BME280;5972;42.134;24.718;2023-05-29T07:15:16;99501.47;;;23.20;100.00
11830;BME280;5972;42.134;24.718;2023-05-29T07:17:42;99505.94;;;23.14;100.00
11830;BME280;5972;42.134;24.718;2023-05-29T07:20:10;99507.22;;;23.46;100.00
11830;BME280;5972;42.134;24.718;2023-05-29T07:22:37;99509.63;;;23.60;100.00
11830;BME280;5972;42.134;24.718;2023-05-29T07:25:06;99511.59;;;23.43;100.00
11830;BME280;5972;42.134;24.718;2023-05-29T07:27:33;99510.59;;;23.53;100.00
11830;BME280;5972;42.134;24.718;2023-05-29T07:30:01;99498.56;;;23.28;100.00
11830;BME280;5972;42.134;24.718;2023-05-29T07:32:27;99510.44;;;23.25;100.00
11830;BME280;5972;42.134;24.718;2023-05-29T07:34:54;99517.72;;;23.35;100.00
11830;BME280;5972;42.134;24.718;2023-05-29T07:40:30;99512.66;;;23.49;100.00
11830;BME280;5972;42.134;24.718;2023-05-29T07:46:19;99505.94;;;23.67;100.00
11830;BME280;5972;42.134;24.718;2023-05-29T07:48:46;99493.81;;;23.93;100.00
11830;BME280;5972;42.134;24.718;2023-05-29T07:51:14;99510.53;;;24.02;100.00
11830;BME280;5972;42.134;24.718;2023-05-29T07:53:44;99503.88;;;24.16;100.00
11830;BME280;5972;42.134;24.718;2023-05-29T07:56:12;99517.25;;;24.33;100.00
11830;BME280;5972;42.134;24.718;2023-05-29T07:58:39;99514.78;;;24.23;100.00
11830;BME280;5972;42.134;24.718;2023-05-29T08:01:06;99519.13;;;23.75;100.00
11830;BME280;5972;42.134;24.718;2023-05-29T08:04:04;99515.88;;;24.09;100.00
11830;BME280;5972;42.134;24.718;2023-05-29T08:06:31;99508.03;;;24.24;100.00
11830;BME280;5972;42.134;24.718;2023-05-29T08:08:59;99512.88;;;24.20;100.00
11830;BME280;5972;42.134;24.718;2023-05-29T08:11:28;99469.03;;;23.89;100.00
11830;BME280;5972;42.134;24.718;2023-05-29T08:13:55;99508.38;;;24.10;100.00
11830;BME280;5972;42.134;24.718;2023-05-29T08:19:44;99472.31;;;24.13;100.00
11830;BME280;5972;42.134;24.718;2023-05-29T08:22:12;99510.69;;;24.56;100.00
11830;BME280;5972;42.134;24.718;2023-05-29T08:24:40;99482.63;;;24.29;99.25
11830;BME280;5972;42.134;24.718;2023-05-29T08:27:08;99484.50;;;24.32;100.00
11830;BME280;5972;42.134;24.718;2023-05-29T08:29:35;99505.88;;;24.44;96.35
11830;BME280;5972;42.134;24.718;2023-05-29T08:32:04;99506.38;;;24.55;90.52
11830;BME280;5972;42.134;24.718;2023-05-29T08:34:31;99505.34;;;24.49;86.80
11830;BME280;5972;42.134;24.718;2023-05-29T08:36:57;99498.34;;;24.16;90.08
11830;BME280;5972;42.134;24.718;2023-05-29T08:39:25;99476.88;;;24.36;86.09
11830;BME280;5972;42.134;24.718;2023-05-29T08:41:57;99497.06;;;24.49;87.56
11830;BME280;5972;42.134;24.718;2023-05-29T08:44:30;99485.72;;;24.72;76.45
11830;BME280;5972;42.134;24.718;2023-05-29T08:47:01;99469.81;;;25.14;81.77
11830;BME280;5972;42.134;24.718;2023-05-29T08:49:29;99498.28;;;25.02;78.31
11830;BME280;5972;42.134;24.718;2023-05-29T08:52:14;99484.78;;;25.17;78.05
11830;BME280;5972;42.134;24.718;2023-05-29T08:54:42;99482.06;;;24.75;75.11
11830;BME280;5972;42.134;24.718;2023-05-29T08:57:11;99483.00;;;25.10;75.83
11830;BME280;5972;42.134;24.718;2023-05-29T08:59:41;99474.81;;;25.32;75.91
11830;BME280;5972;42.134;24.718;2023-05-29T09:05:30;99468.13;;;25.67;72.15
11830;BME280;5972;42.134;24.718;2023-05-29T09:07:58;99475.00;;;25.97;70.30
11830;BME280;5972;42.134;24.718;2023-05-29T09:10:25;99480.13;;;26.21;70.35
11830;BME280;5972;42.134;24.718;2023-05-29T09:12:52;99483.25;;;25.88;71.92
11830;BME280;5972;42.134;24.718;2023-05-29T09:15:22;99485.53;;;25.55;73.29
11830;BME280;5972;42.134;24.718;2023-05-29T09:17:50;99479.88;;;26.06;66.98
11830;BME280;5972;42.134;24.718;2023-05-29T09:20:18;99474.47;;;26.02;68.58
11830;BME280;5972;42.134;24.718;2023-05-29T09:22:53;99452.19;;;25.46;71.68
11830;BME280;5972;42.134;24.718;2023-05-29T09:25:20;99459.72;;;25.46;70.00
11830;BME280;5972;42.134;24.718;2023-05-29T09:27:51;99476.81;;;25.57;69.41
11830;BME280;5972;42.134;24.718;2023-05-29T09:30:33;99468.50;;;25.57;71.52
11830;BME280;5972;42.134;24.718;2023-05-29T09:33:01;99469.59;;;25.34;72.52
11830;BME280;5972;42.134;24.718;2023-05-29T09:35:33;99471.28;;;25.06;68.98
11830;BME280;5972;42.134;24.718;2023-05-29T09:38:00;99468.72;;;24.99;70.11
11830;BME280;5972;42.134;24.718;2023-05-29T09:40:29;99467.59;;;25.22;68.21
11830;BME280;5972;42.134;24.718;2023-05-29T09:43:02;99459.59;;;25.37;72.18
11830;BME280;5972;42.134;24.718;2023-05-29T09:45:36;99456.81;;;25.49;73.44
11830;BME280;5972;42.134;24.718;2023-05-29T09:48:05;99467.16;;;25.61;66.35
11830;BME280;5972;42.134;24.718;2023-05-29T09:50:33;99411.03;;;24.18;76.12
11830;BME280;5972;42.134;24.718;2023-05-29T09:53:00;99447.69;;;25.02;75.38
11830;BME280;5972;42.134;24.718;2023-05-29T09:55:29;99426.75;;;25.01;72.88
11830;BME280;5972;42.134;24.718;2023-05-29T09:57:58;99430.69;;;24.87;76.09
11830;BME280;5972;42.134;24.718;2023-05-29T10:00:25;99416.22;;;25.21;72.84
11830;BME280;5972;42.134;24.718;2023-05-29T10:02:53;99427.47;;;25.39;74.27
11830;BME280;5972;42.134;24.718;2023-05-29T10:05:21;99420.31;;;25.04;65.31
11830;BME280;5972;42.134;24.718;2023-05-29T10:07:49;99432.88;;;25.68;63.42
11830;BME280;5972;42.134;24.718;2023-05-29T10:10:20;99416.28;;;25.90;61.07
11830;BME280;5972;42.134;24.718;2023-05-29T10:12:50;99395.97;;;25.93;59.47
11830;BME280;5972;42.134;24.718;2023-05-29T10:15:18;99396.84;;;25.55;60.68
11830;BME280;5972;42.134;24.718;2023-05-29T10:17:50;99416.00;;;25.75;62.35
11830;BME280;5972;42.134;24.718;2023-05-29T10:20:20;99421.53;;;25.75;62.73
11830;BME280;5972;42.134;24.718;2023-05-29T10:22:50;99422.03;;;25.36;61.54
11830;BME280;5972;42.134;24.718;2023-05-29T10:25:19;99413.84;;;25.57;60.88
11830;BME280;5972;42.134;24.718;2023-05-29T10:27:47;99403.19;;;26.12;57.40
11830;BME280;5972;42.134;24.718;2023-05-29T10:30:24;99393.28;;;26.02;56.92
11830;BME280;5972;42.134;24.718;2023-05-29T10:33:08;99405.91;;;26.46;54.16
11830;BME280;5972;42.134;24.718;2023-05-29T10:35:45;99381.06;;;26.21;54.46
11830;BME280;5972;42.134;24.718;2023-05-29T10:38:14;99405.19;;;26.86;54.96
11830;BME280;5972;42.134;24.718;2023-05-29T10:40:42;99398.97;;;27.22;49.64
11830;BME280;5972;42.134;24.718;2023-05-29T10:43:30;99395.47;;;27.40;48.79
11830;BME280;5972;42.134;24.718;2023-05-29T10:45:57;99398.91;;;26.95;48.69
11830;BME280;5972;42.134;24.718;2023-05-29T10:48:40;99397.41;;;27.03;51.11
11830;BME280;5972;42.134;24.718;2023-05-29T10:51:24;99375.34;;;27.17;50.47
11830;BME280;5972;42.134;24.718;2023-05-29T10:54:05;99393.63;;;27.46;49.24
11830;BME280;5972;42.134;24.718;2023-05-29T10:56:32;99387.41;;;27.23;49.36
11830;BME280;5972;42.134;24.718;2023-05-29T10:58:59;99383.84;;;26.74;51.37
11830;BME280;5972;42.134;24.718;2023-05-29T11:01:28;99381.53;;;27.12;51.76
11830;BME280;5972;42.134;24.718;2023-05-29T11:04:28;99379.91;;;26.93;52.43
11830;BME280;5972;42.134;24.718;2023-05-29T11:07:01;99375.00;;;26.97;50.60
11830;BME280;5972;42.134;24.718;2023-05-29T11:09:32;99385.72;;;27.35;49.43
11830;BME280;5972;42.134;24.718;2023-05-29T11:12:15;99376.75;;;27.13;51.54
11830;BME280;5972;42.134;24.718;2023-05-29T11:14:54;99369.06;;;27.44;48.67
11830;BME280;5972;42.134;24.718;2023-05-29T11:17:32;99376.38;;;27.69;49.01
11830;BME280;5972;42.134;24.718;2023-05-29T11:20:02;99370.13;;;27.38;48.26
11830;BME280;5972;42.134;24.718;2023-05-29T11:22:55;99371.56;;;27.51;49.65
11830;BME280;5972;42.134;24.718;2023-05-29T11:25:26;99360.94;;;27.86;48.11
11830;BME280;5972;42.134;24.718;2023-05-29T11:27:53;99358.91;;;28.14;47.85
11830;BME280;5972;42.134;24.718;2023-05-29T11:30:21;99366.03;;;28.57;46.66
11830;BME280;5972;42.134;24.718;2023-05-29T11:32:48;99364.03;;;28.58;47.04
11830;BME280;5972;42.134;24.718;2023-05-29T11:35:19;99350.13;;;28.48;47.22
11830;BME280;5972;42.134;24.718;2023-05-29T11:37:49;99361.19;;;28.67;47.41
11830;BME280;5972;42.134;24.718;2023-05-29T11:40:16;99357.25;;;28.91;46.80
11830;BME280;5972;42.134;24.718;2023-05-29T11:42:51;99354.97;;;28.81;44.90
11830;BME280;5972;42.134;24.718;2023-05-29T11:45:20;99360.53;;;28.72;46.41
11830;BME280;5972;42.134;24.718;2023-05-29T11:47:52;99349.44;;;27.48;48.63
11830;BME280;5972;42.134;24.718;2023-05-29T11:50:20;99321.66;;;27.20;51.21
11830;BME280;5972;42.134;24.718;2023-05-29T11:52:49;99350.16;;;26.94;50.92
11830;BME280;5972;42.134;24.718;2023-05-29T11:55:17;99347.63;;;27.81;49.74
11830;BME280;5972;42.134;24.718;2023-05-29T11:57:45;99337.75;;;27.62;49.21
11830;BME280;5972;42.134;24.718;2023-05-29T12:00:13;99327.88;;;26.84;50.68
11830;BME280;5972;42.134;24.718;2023-05-29T12:02:40;99328.78;;;27.40;50.50
11830;BME280;5972;42.134;24.718;2023-05-29T12:05:09;99297.91;;;27.56;50.81
11830;BME280;5972;42.134;24.718;2023-05-29T12:07:38;99314.09;;;27.76;49.92
11830;BME280;5972;42.134;24.718;2023-05-29T12:10:13;99309.25;;;28.03;50.31
11830;BME280;5972;42.134;24.718;2023-05-29T12:12:40;99316.81;;;28.21;49.77
11830;BME280;5972;42.134;24.718;2023-05-29T12:15:08;99311.38;;;28.36;49.01
11830;BME280;5972;42.134;24.718;2023-05-29T12:17:36;99309.19;;;28.40;47.77
11830;BME280;5972;42.134;24.718;2023-05-29T12:20:04;99304.16;;;28.20;47.63
11830;BME280;5972;42.134;24.718;2023-05-29T12:22:35;99310.06;;;27.95;50.46
11830;BME280;5972;42.134;24.718;2023-05-29T12:25:06;99275.69;;;27.47;51.34
11830;BME280;5972;42.134;24.718;2023-05-29T12:27:38;99310.59;;;27.75;50.99
11830;BME280;5972;42.134;24.718;2023-05-29T12:30:09;99307.94;;;27.53;48.15
11830;BME280;5972;42.134;24.718;2023-05-29T12:32:37;99319.97;;;27.87;48.64
11830;BME280;5972;42.134;24.718;2023-05-29T12:35:15;99319.69;;;27.66;46.05
11830;BME280;5972;42.134;24.718;2023-05-29T12:37:44;99281.81;;;27.14;46.52
11830;BME280;5972;42.134;24.718;2023-05-29T12:40:16;99292.47;;;27.16;48.44
11830;BME280;5972;42.134;24.718;2023-05-29T12:42:45;99287.22;;;26.91;47.72
11830;BME280;5972;42.134;24.718;2023-05-29T12:45:12;99304.16;;;26.93;47.19
11830;BME280;5972;42.134;24.718;2023-05-29T12:47:45;99286.50;;;26.68;49.11
11830;BME280;5972;42.134;24.718;2023-05-29T12:50:23;99305.59;;;26.97;50.12
11830;BME280;5972;42.134;24.718;2023-05-29T12:52:57;99300.06;;;26.57;50.85
11830;BME280;5972;42.134;24.718;2023-05-29T12:55:25;99286.00;;;26.92;50.45
11830;BME280;5972;42.134;24.718;2023-05-29T12:57:53;99285.38;;;27.06;49.40
11830;BME280;5972;42.134;24.718;2023-05-29T13:00:20;99292.16;;;27.05;49.61
11830;BME280;5972;42.134;24.718;2023-05-29T13:02:48;99295.97;;;26.80;49.96
11830;BME280;5972;42.134;24.718;2023-05-29T13:05:15;99277.69;;;26.52;52.54
11830;BME280;5972;42.134;24.718;2023-05-29T13:07:45;99260.38;;;26.47;54.33
11830;BME280;5972;42.134;24.718;2023-05-29T13:10:12;99255.75;;;26.44;53.84
11830;BME280;5972;42.134;24.718;2023-05-29T13:12:39;99291.03;;;26.84;54.57
11830;BME280;5972;42.134;24.718;2023-05-29T13:15:10;99278.97;;;26.87;53.05
11830;BME280;5972;42.134;24.718;2023-05-29T13:17:38;99281.97;;;26.93;52.41
11830;BME280;5972;42.134;24.718;2023-05-29T13:20:08;99289.22;;;26.90;51.14